Terminal Aerodrome Forecast
Issued by NWS

Home | Current Version | Previous Version | Text Only | Print | Product List | Glossary On
Versions: 1 2 3 4 5 6 7 8 9 10 11 12 13 14 15 16 17 18 19 20 21 22 23 24 25
000
FTUS43 KEAX 250520
TAFSTJ
TAF
KSTJ 250520Z 2506/2606 00000KT P6SM SCT010 BKN080
     FM250900 02004KT 4SM BR VCSH BKN010
     FM251500 04007KT P6SM BKN040
     FM252200 06008KT P6SM VCTS BKN060CB
     FM260100 03006KT 5SM -TSRA BKN040CB=

USA.gov is the U.S. government's official web portal to all federal, state and local government web resources and services.